Observations for Trim Patrick St
| Time | AQI | Temp °C | Hum % | Pres Pa | CO μg/m³ | H₂S μg/m³ | NO μg/m³ | NO₂ μg/m³ | O₃ μg/m³ | SO₂ μg/m³ | PM1 μg/m³ | PM2.5 μg/m³ | PM10 μg/m³ |
|---|---|---|---|---|---|---|---|---|---|---|---|---|---|
| Monday 3 August 2026 | |||||||||||||
| 09:49 | 2 | 23 | 62 | 77,760 | 0 | 0 | 2.71 | 13.74 | 52.1 | 3.62 | 5.43 | 10.11 | 11.12 |
| 09:48 | 2 | 22.9 | 62 | 77,943 | 0 | 0 | 2.26 | 12.36 | 49.08 | 3.87 | 6.29 | 13.01 | 14.31 |
| 09:47 | 2 | 22.8 | 63 | 78,224 | 0 | 0 | 2.29 | 12.66 | 47.76 | 3.36 | 6.29 | 11.51 | 12.66 |
| 09:46 | 2 | 22.7 | 63 | 78,438 | 0 | 0 | 2.64 | 12.28 | 49.44 | 3.36 | 4.57 | 8.56 | 9.41 |
| 09:45 | 2 | 22.6 | 63 | 78,653 | 0 | 0 | 2.19 | 9.62 | 55.5 | 3.7 | 6.29 | 10.75 | 11.83 |
| 09:44 | 2 | 22.5 | 63 | 78,857 | 0 | 0 | 1.9 | 13.31 | 57.48 | 3.36 | 5.43 | 10.77 | 11.84 |
| 09:43 | 2 | 22.5 | 62 | 78,700 | 0 | 0 | 2.45 | 12.03 | 50.53 | 2.94 | 6.29 | 12.27 | 13.49 |
| 09:42 | 2 | 22.4 | 63 | 78,663 | 0 | 0 | 2.21 | 10.17 | 54.39 | 2.92 | 4.57 | 10.02 | 11.03 |
| 09:41 | 2 | 22.5 | 63 | 78,755 | 0 | 0 | 1.94 | 8.99 | 54.92 | 3.03 | 6.29 | 10.03 | 11.03 |
| 09:40 | 2 | 22.5 | 62 | 78,887 | 0 | 0 | 2.02 | 8.51 | 57.86 | 3.57 | 6.29 | 11.54 | 12.7 |
| 09:39 | 2 | 22.4 | 62 | 79,042 | 0 | 0 | 2.28 | 9.23 | 58.04 | 3.42 | 7.14 | 11.56 | 12.72 |
| 09:38 | 2 | 22.5 | 62 | 79,113 | 0 | 0 | 2.03 | 8.7 | 56.36 | 2.86 | 6.29 | 11.56 | 12.72 |
| 09:37 | 2 | 22.5 | 62 | 79,154 | 0 | 0 | 2.55 | 8.02 | 53.83 | 2.76 | 7.14 | 12.27 | 13.49 |
| 09:36 | 2 | 22.5 | 63 | 79,243 | 0 | 0 | 2.69 | 8.53 | 54.2 | 3.03 | 6.29 | 10.78 | 11.85 |
| 09:35 | 2 | 22.5 | 63 | 79,249 | 0 | 0 | 2.73 | 9 | 53.85 | 3.1 | 6.29 | 11.5 | 12.66 |
| 09:34 | 2 | 22.5 | 63 | 79,186 | 0 | 0 | 2.65 | 8.01 | 54.49 | 4.4 | 6.29 | 10.72 | 11.79 |
| 09:33 | 2 | 22.5 | 62 | 79,107 | 0 | 0 | 2.69 | 10.46 | 49.31 | 4.63 | 5.43 | 10.09 | 11.1 |
| 09:32 | 2 | 22.6 | 62 | 78,851 | 0 | 0 | 2.57 | 9.48 | 52.51 | 2.84 | 5.43 | 10.81 | 11.9 |
| 09:31 | 2 | 22.6 | 62 | 78,800 | 0 | 0 | 2.34 | 7.65 | 53.83 | 3.76 | 6.29 | 11.55 | 12.71 |
| 09:30 | 2 | 22.7 | 62 | 78,871 | 0 | 0 | 2.47 | 8.41 | 52.72 | 3.19 | 6.29 | 10.83 | 11.91 |